This is the latest recevied weather packets stored in our database for station/object OK4PZ-5. If no packets are shown the sender has not sent any weather packets the latest 1 day(s).
| Time | Temp. | Humidity | Pressure | Rain* | Wind** | Luminosity | Snow |
|---|---|---|---|---|---|---|---|
| 1836274677 | 8.89° C | 99% | 1025 hPa | 0 mm | 0 m/s | - | - |
| 1778034602 | 11.11° C | 97% | 1010 hPa | 0 mm | 0 m/s | - | - |
| 1778033702 | 11.11° C | 96% | 1010 hPa | 0 mm | 0 m/s | - | - |
| 1778032802 | 11.67° C | 96% | 1010 hPa | 0 mm | 0 m/s | - | - |
| 1778031902 | 11.67° C | 96% | 1010 hPa | 0 mm | 0 m/s | - | - |
| 1778031002 | 11.67° C | 96% | 1010 hPa | 0 mm | 0 m/s | - | - |
| 1778030102 | 12.22° C | 94% | 1010 hPa | 0 mm | 0 m/s | - | - |
| 1778029202 | 12.22° C | 94% | 1010 hPa | 0 mm | 0.45 m/s, 252° | - | - |
| 1778028303 | 12.78° C | 91% | 1010 hPa | 0 mm | 0 m/s | - | - |
| 1778027402 | 13.33° C | 90% | 1010 hPa | 0 mm | 0.45 m/s, 279° | - | - |
| 1778026502 | 13.33° C | 88% | 1009 hPa | 0 mm | 0.89 m/s, 294° | - | - |
| 1778025602 | 13.89° C | 87% | 1009 hPa | 0 mm | 0 m/s | - | - |
| 1778024703 | 13.89° C | 87% | 1009 hPa | 0 mm | 0.45 m/s, 276° | - | - |
| 1778023802 | 14.44° C | 84% | 1009 hPa | 0 mm | 1.34 m/s, 293° | - | - |
| 1778022902 | 14.44° C | 82% | 1009 hPa | 0 mm | 0.89 m/s, 334° | - | - |
| 1778022002 | 14.44° C | 82% | 1009 hPa | 0 mm | 0.89 m/s, 292° | - | - |
| 1778021102 | 15° C | 79% | 1009 hPa | 0 mm | 1.79 m/s, 241° | - | - |
| 1778020202 | 15.56° C | 74% | 1009 hPa | 0 mm | 1.34 m/s, 234° | - | - |
| 1778019302 | 16.11° C | 72% | 1009 hPa | 0 mm | 3.58 m/s, 256° | - | - |
| 1778018402 | 16.11° C | 71% | 1009 hPa | 0 mm | 0.89 m/s, 227° | - | - |
| 1778017502 | 16.67° C | 71% | 1009 hPa | 0 mm | 1.79 m/s, 207° | - | - |
| 1778016603 | 16.67° C | 71% | 1008 hPa | 0 mm | 2.24 m/s, 305° | - | - |
| 1778015701 | 16.67° C | 73% | 1008 hPa | 0 mm | 1.79 m/s, 285° | - | - |
| 1778014802 | 16.11° C | 74% | 1008 hPa | 0 mm | 1.34 m/s, 232° | - | - |
| 1778013902 | 16.11° C | 71% | 1008 hPa | 0 mm | 0.45 m/s, 248° | - | - |
* Rain latest hour (hover to see other rain measurements)
** Current wind speed in m/s (hover to see current wind gust speed)